Dundee, MI (48131)

12:59 PM EDT on August 30, 2015 (GMT -0400)
Dundee, MI | | Change Station
CLOSE
Current Station
Personal Weather Station
Location: Dundee, MI
Elevation: 669 ft
Nearby Weather Stations

Elev 669 ft 41.94 °N, 83.65 °W | Updated 4 minutes ago

Mostly Cloudy
Mostly Cloudy
77.5 °F
Feels Like 79 °F
N
0.0
Wind Variable Wind from NE

Today
High -- | Low -- °F
--% Chance of Precip.
Yesterday
High -- | Low -- °F
Precip. -- in
6:57 AM 8:11 PM
Full, 99% visible
Pressure 30.07 in
Visibility 10.0 miles
Clouds Mostly Cloudy 1900 ft
Mostly Cloudy 4700 ft
Heat Index 79 °F
Dew Point 69 °F
Humidity 75%
Rainfall 0.00 in
Snow Depth Not available.
UV 5 out of 12
Pollen 8.40 out of 12
Air Quality Not available.
Flu Activity Not available.
METAR KTTF 301634Z AUTO 20003KT 10SM BKN019 BKN047 26/21 A3007 RMK AO2 T02610209
Pressure 30.07 in
Visibility 10.0 miles
Clouds Mostly Cloudy 1900 ft
Mostly Cloudy 4700 ft
Heat Index 79 °F
Dew Point 69 °F
Humidity 75%
Rainfall 0.00 in
Snow Depth Not available.
UV 5 out of 12
Pollen 8.40 out of 12
Air Quality Not available.
Flu Activity Not available.
METAR KTTF 301634Z AUTO 20003KT 10SM BKN019 BKN047 26/21 A3007 RMK AO2 T02610209

10-Day Weather Forecast

×

Almanac

Astronomy

Aug. 30, 2015 Rise Set
Actual Time
Civil Twilight
Nautical Twilight
Astronomical Twilight
Moon
Length of Visible Light
Length of Day
Tomorrow will be .
, % of the Moon is Illuminated

Today's Extremes

State Highs State Lows

Community

WunderPhotos

Upload Photos

1,851,008 photos uploaded!

WunderBlogs® & News

Nearby

Air Quality

  Air Quality AQ Index Pollutant
Not available.

Snow Depth

Station Depth Elevation

Earthquake Activity

City Distance Mag. Time & Date
Minimum magnitude displayed is 2.5.

Coastal Water Temperatures

Place Temperature

Stations

Nearby Weather Stations

Station Location Temp. Windchill Dew Point Humidity Wind Precip. Elev Updated Type